Friday, August 28, 2015, 8:39 AM EDT

KEZF, Fredericksburg, Shannon Airport

Location: Fredericksburg, VA, United States Lat: 38.267
Local Time: 8:39 AM EDT (12:39 GMT) Lon: -77.45
Time Zone: US/Eastern Elev: 85 ft

Show me the last for .
Show Decoded

2015-08-28 08:15 METAR KEZF 281215Z AUTO 00000KT 10SM BKN065 20/18 A3019 RMK AO2 T02020181 =
2015-08-28 07:55 METAR KEZF 281155Z AUTO 00000KT 10SM SCT065 18/18 A3018 RMK AO2 T01830176 10183
                 20160 =
2015-08-28 07:35 METAR KEZF 281135Z AUTO 00000KT 10SM SCT070 17/17 A3018 RMK AO2 T01690169 =
2015-08-28 07:15 METAR KEZF 281115Z AUTO 00000KT 10SM BKN060 17/17 A3017 RMK AO2 T01680166 =
2015-08-28 06:55 METAR KEZF 281055Z AUTO 00000KT 10SM SCT060 16/16 A3017 RMK AO2 T01630163 =
2015-08-28 06:35 METAR KEZF 281035Z AUTO 00000KT 10SM CLR 16/16 A3016 RMK AO2 T01600160 =
2015-08-28 06:15 METAR KEZF 281015Z AUTO 00000KT 10SM CLR 16/16 A3016 RMK AO2 T01620162 =
2015-08-28 05:55 METAR KEZF 280955Z AUTO 00000KT 10SM CLR 16/16 A3015 RMK AO2 T01610161 =
2015-08-28 05:35 METAR KEZF 280935Z AUTO 00000KT 10SM CLR 17/16 A3015 RMK AO2 T01650164 =
2015-08-28 05:15 METAR KEZF 280915Z AUTO 00000KT 10SM SCT065 16/16 A3015 RMK AO2 T01630161 =
2015-08-28 04:35 METAR KEZF 280835Z AUTO 00000KT 10SM CLR 17/17 A3014 RMK AO2 T01660165 =
2015-08-28 03:55 METAR KEZF 280755Z AUTO 00000KT 10SM SCT065 SCT080 17/17 A3014 RMK AO2 T01700166
                 =
2015-08-28 03:35 METAR KEZF 280735Z AUTO 00000KT 10SM SCT080 17/17 A3014 RMK AO2 T01710167 =
2015-08-28 03:15 METAR KEZF 280715Z AUTO 00000KT 10SM CLR 17/17 A3014 RMK AO2 T01730167 =
2015-08-28 02:55 METAR KEZF 280655Z AUTO 00000KT 10SM CLR 18/16 A3014 RMK AO2 T01770163 =
2015-08-28 02:35 METAR KEZF 280635Z AUTO 00000KT 10SM SCT080 18/16 A3014 RMK AO2 T01800160 =
2015-08-28 02:15 METAR KEZF 280615Z AUTO 00000KT 10SM OVC070 18/16 A3015 RMK AO2 T01800161 =
2015-08-28 01:55 METAR KEZF 280555Z AUTO 00000KT 10SM BKN070 18/16 A3015 RMK AO2 T01760156 10229
                 20175 402840155 =
2015-08-28 01:35 METAR KEZF 280535Z AUTO 00000KT 10SM SCT070 18/16 A3016 RMK AO2 T01760159 =
2015-08-28 01:15 METAR KEZF 280515Z AUTO 00000KT 10SM CLR 18/16 A3016 RMK AO2 T01770157 =
2015-08-28 00:55 METAR KEZF 280455Z AUTO 00000KT 10SM CLR 18/16 A3015 RMK AO2 T01790155 =
2015-08-28 00:35 METAR KEZF 280435Z AUTO 00000KT 10SM CLR 18/16 A3015 RMK AO2 T01810155 =
2015-08-28 00:15 METAR KEZF 280415Z AUTO 00000KT 10SM CLR 18/16 A3014 RMK AO2 T01840155 =
2015-08-27 23:55 METAR KEZF 280355Z AUTO 00000KT 10SM SCT080 19/16 A3014 RMK AO2 T01860157 =
2015-08-27 23:35 METAR KEZF 280335Z AUTO 00000KT 10SM SCT080 19/16 A3014 RMK AO2 T01940157 =
2015-08-27 23:15 METAR KEZF 280315Z AUTO 00000KT 10SM BKN080 20/16 A3014 RMK AO2 T01950158 =
2015-08-27 22:55 METAR KEZF 280255Z AUTO 00000KT 10SM OVC080 20/16 A3014 RMK AO2 T01960158 =
2015-08-27 22:35 METAR KEZF 280235Z AUTO 00000KT 10SM OVC080 19/16 A3014 RMK AO2 T01940158 =
2015-08-27 22:15 METAR KEZF 280215Z AUTO 00000KT 10SM OVC070 20/16 A3014 RMK AO2 T01970155 =
2015-08-27 21:55 METAR KEZF 280155Z AUTO 00000KT 10SM BKN070 20/16 A3014 RMK AO2 T02010157 =
2015-08-27 21:35 METAR KEZF 280135Z AUTO 00000KT 10SM CLR 20/16 A3012 RMK AO2 T01950155 =
2015-08-27 21:15 METAR KEZF 280115Z AUTO 00000KT 10SM CLR 20/16 A3012 RMK AO2 T02010157 =
2015-08-27 20:55 METAR KEZF 280055Z AUTO 00000KT 10SM CLR 21/16 A3011 RMK AO2 T02060158 =
2015-08-27 20:35 METAR KEZF 280035Z AUTO 00000KT 10SM CLR 21/16 A3010 RMK AO2 T02130158 =
2015-08-27 20:15 METAR KEZF 280015Z AUTO 00000KT 10SM CLR 22/16 A3009 RMK AO2 T02200160 =
2015-08-27 19:55 METAR KEZF 272355Z AUTO 00000KT 10SM CLR 23/16 A3009 RMK AO2 T02310159 10284
                 20231 =
2015-08-27 19:35 METAR KEZF 272335Z AUTO 00000KT 10SM CLR 26/14 A3008 RMK AO2 T02570136 =
2015-08-27 19:15 METAR KEZF 272315Z AUTO 03003KT 10SM CLR 26/13 A3008 RMK AO2 T02630129 =
2015-08-27 18:55 METAR KEZF 272255Z AUTO 02004KT 10SM CLR 27/13 A3008 RMK AO2 T02670128 =
2015-08-27 18:35 METAR KEZF 272235Z AUTO 33003KT 7SM CLR 27/13 A3008 RMK AO2 T02700127 =
2015-08-27 18:15 METAR KEZF 272215Z AUTO 35007KT 10SM CLR 27/13 A3008 RMK AO2 T02730130 =
2015-08-27 17:55 METAR KEZF 272155Z AUTO 34004KT 10SM SCT055 27/13 A3008 RMK AO2 T02740131 =
2015-08-27 17:35 METAR KEZF 272135Z AUTO 00000KT 10SM SCT055 28/14 A3008 RMK AO2 T02790136 =
2015-08-27 17:15 METAR KEZF 272115Z AUTO 03004KT 10SM SCT055 27/14 A3007 RMK AO2 T02740139 =
2015-08-27 16:55 METAR KEZF 272055Z AUTO 35005KT 10SM SCT055 28/14 A3007 RMK AO2 T02780137 =
2015-08-27 16:35 METAR KEZF 272035Z AUTO 35005KT 10SM SCT055 27/14 A3007 RMK AO2 T02700135 =
2015-08-27 16:15 METAR KEZF 272015Z AUTO 01005KT 10SM SCT055 27/14 A3007 RMK AO2 T02690135 =
2015-08-27 15:55 METAR KEZF 271955Z AUTO 01003G08KT 10SM SCT055 28/14 A3008 RMK AO2 T02790137 =
2015-08-27 15:35 METAR KEZF 271935Z AUTO 02004KT 10SM SCT055 28/14 A3008 RMK AO2 T02770136 =
2015-08-27 15:15 METAR KEZF 271915Z AUTO 34006KT 10SM BKN055 BKN100 27/13 A3008 RMK AO2 T02710133
                 =
2015-08-27 14:55 METAR KEZF 271855Z AUTO 33003KT 10SM SCT055 27/13 A3009 RMK AO2 T02660132 =
2015-08-27 14:35 METAR KEZF 271835Z AUTO 34007G14KT 10SM SCT055 28/14 A3009 RMK AO2 T02780137 =
2015-08-27 14:15 METAR KEZF 271815Z AUTO 34006KT 10SM CLR 27/14 A3010 RMK AO2 T02660135 =
2015-08-27 13:55 METAR KEZF 271755Z AUTO 33007KT 10SM CLR 27/13 A3010 RMK AO2 T02710133 10274
                 20182 =
2015-08-27 13:35 METAR KEZF 271735Z AUTO 35003KT 10SM CLR 27/13 A3010 RMK AO2 T02650132 =
2015-08-27 13:15 METAR KEZF 271715Z AUTO 00000KT 10SM CLR 27/13 A3011 RMK AO2 T02680133 =
2015-08-27 12:50 METAR KEZF 271650Z AUTO 36007KT 10SM CLR 26/13 A3012 RMK AO2 T02620130 =
2015-08-27 12:35 METAR KEZF 271635Z AUTO 04005KT 10SM CLR 26/13 A3012 RMK AO2 T02620131 =
2015-08-27 12:15 METAR KEZF 271615Z AUTO 03007KT 360V070 10SM CLR 26/13 A3013 RMK AO2 T02580131 =
2015-08-27 11:55 METAR KEZF 271555Z AUTO 35006KT 10SM CLR 25/13 A3014 RMK AO2 T02540133 =
2015-08-27 11:35 METAR KEZF 271535Z AUTO 35004KT 10SM CLR 25/14 A3014 RMK AO2 T02470136 =
2015-08-27 11:10 METAR KEZF 271510Z AUTO 32005KT 10SM CLR 25/14 A3014 RMK AO2 T02460142 =
2015-08-27 10:55 METAR KEZF 271455Z AUTO 36003KT 10SM CLR 24/14 A3014 RMK AO2 T02420142 =
2015-08-27 10:35 METAR KEZF 271435Z AUTO 35004KT 10SM CLR 24/14 A3014 RMK AO2 T02370135 =
2015-08-27 10:15 METAR KEZF 271415Z AUTO 33006KT 10SM CLR 24/14 A3014 RMK AO2 T02360138 =
2015-08-27 09:55 METAR KEZF 271355Z AUTO 36005KT 10SM CLR 23/14 A3013 RMK AO2 T02300135 =
2015-08-27 09:35 METAR KEZF 271335Z AUTO 36006KT 10SM CLR 22/14 A3013 RMK AO2 T02230140 =
2015-08-27 09:15 METAR KEZF 271315Z AUTO 36007KT 10SM CLR 22/14 A3013 RMK AO2 T02200142 =
2015-08-27 08:55 METAR KEZF 271255Z AUTO 36005KT 10SM CLR 21/14 A3012 RMK AO2 T02130141 =

Support USWX by starting your Amazon purchase here.